sensor_id;sensor_type;location;lat;lon;timestamp;temperature;humidity
37530;DHT22;23374;52.758;6.872;2022-12-24T00:00:27;8.80;99.90
37530;DHT22;23374;52.758;6.872;2022-12-24T00:02:49;8.90;99.90
37530;DHT22;23374;52.758;6.872;2022-12-24T00:05:13;9.00;99.90
37530;DHT22;23374;52.758;6.872;2022-12-24T00:07:33;9.00;99.90
37530;DHT22;23374;52.758;6.872;2022-12-24T00:09:54;9.10;99.90
37530;DHT22;23374;52.758;6.872;2022-12-24T00:12:16;9.10;99.90
37530;DHT22;23374;52.758;6.872;2022-12-24T00:14:36;9.20;99.90
37530;DHT22;23374;52.758;6.872;2022-12-24T00:16:56;9.20;99.90
37530;DHT22;23374;52.758;6.872;2022-12-24T00:19:17;9.20;99.90
37530;DHT22;23374;52.758;6.872;2022-12-24T00:21:37;9.20;99.90
37530;DHT22;23374;52.758;6.872;2022-12-24T00:23:58;9.20;99.90
37530;DHT22;23374;52.758;6.872;2022-12-24T00:26:18;9.20;99.90
37530;DHT22;23374;52.758;6.872;2022-12-24T00:28:39;9.30;99.90
37530;DHT22;23374;52.758;6.872;2022-12-24T00:31:17;9.30;99.90
37530;DHT22;23374;52.758;6.872;2022-12-24T00:33:37;9.30;99.90
37530;DHT22;23374;52.758;6.872;2022-12-24T00:35:58;9.30;99.90
37530;DHT22;23374;52.758;6.872;2022-12-24T00:38:19;9.30;99.90
37530;DHT22;23374;52.758;6.872;2022-12-24T00:40:39;9.20;99.90
37530;DHT22;23374;52.758;6.872;2022-12-24T00:42:59;9.20;99.90
37530;DHT22;23374;52.758;6.872;2022-12-24T00:45:20;9.20;99.90
37530;DHT22;23374;52.758;6.872;2022-12-24T00:47:41;9.20;99.90
37530;DHT22;23374;52.758;6.872;2022-12-24T00:50:01;9.20;99.90
37530;DHT22;23374;52.758;6.872;2022-12-24T00:52:22;9.20;99.90
37530;DHT22;23374;52.758;6.872;2022-12-24T00:54:42;9.20;99.90
37530;DHT22;23374;52.758;6.872;2022-12-24T00:57:02;9.20;99.90
37530;DHT22;23374;52.758;6.872;2022-12-24T00:59:23;9.20;99.90
37530;DHT22;23374;52.758;6.872;2022-12-24T01:01:43;9.20;99.90
37530;DHT22;23374;52.758;6.872;2022-12-24T01:04:04;9.20;99.90
37530;DHT22;23374;52.758;6.872;2022-12-24T01:06:43;9.20;99.90
37530;DHT22;23374;52.758;6.872;2022-12-24T01:09:03;9.20;99.90
37530;DHT22;23374;52.758;6.872;2022-12-24T01:11:23;9.30;99.90
37530;DHT22;23374;52.758;6.872;2022-12-24T01:13:44;9.20;99.90
37530;DHT22;23374;52.758;6.872;2022-12-24T01:16:18;9.30;99.90
37530;DHT22;23374;52.758;6.872;2022-12-24T01:18:38;9.30;99.90
37530;DHT22;23374;52.758;6.872;2022-12-24T01:21:02;9.30;99.90
37530;DHT22;23374;52.758;6.872;2022-12-24T01:23:23;9.20;99.90
37530;DHT22;23374;52.758;6.872;2022-12-24T01:25:43;9.30;99.90
37530;DHT22;23374;52.758;6.872;2022-12-24T01:28:05;9.30;99.90
37530;DHT22;23374;52.758;6.872;2022-12-24T01:30:25;9.30;99.90
37530;DHT22;23374;52.758;6.872;2022-12-24T01:32:45;9.30;99.90
37530;DHT22;23374;52.758;6.872;2022-12-24T01:35:06;9.30;99.90
37530;DHT22;23374;52.758;6.872;2022-12-24T01:37:28;9.30;99.90
37530;DHT22;23374;52.758;6.872;2022-12-24T01:39:48;9.30;99.90
37530;DHT22;23374;52.758;6.872;2022-12-24T01:42:22;9.30;99.90
37530;DHT22;23374;52.758;6.872;2022-12-24T01:46:31;9.30;99.90
37530;DHT22;23374;52.758;6.872;2022-12-24T01:49:01;9.30;99.90
37530;DHT22;23374;52.758;6.872;2022-12-24T01:52:23;9.30;99.90
37530;DHT22;23374;52.758;6.872;2022-12-24T01:54:57;9.30;99.90
37530;DHT22;23374;52.758;6.872;2022-12-24T01:57:29;9.40;99.90
37530;DHT22;23374;52.758;6.872;2022-12-24T01:59:56;9.40;99.90
37530;DHT22;23374;52.758;6.872;2022-12-24T02:02:17;9.40;99.90
37530;DHT22;23374;52.758;6.872;2022-12-24T02:06:09;9.40;99.90
37530;DHT22;23374;52.758;6.872;2022-12-24T02:08:34;9.40;99.90
37530;DHT22;23374;52.758;6.872;2022-12-24T02:11:00;9.40;99.90
37530;DHT22;23374;52.758;6.872;2022-12-24T02:13:21;9.50;99.90
37530;DHT22;23374;52.758;6.872;2022-12-24T02:16:41;9.50;99.90
37530;DHT22;23374;52.758;6.872;2022-12-24T02:34:29;9.30;99.90
37530;DHT22;23374;52.758;6.872;2022-12-24T02:37:17;9.20;99.90
37530;DHT22;23374;52.758;6.872;2022-12-24T02:40:10;9.20;99.90
37530;DHT22;23374;52.758;6.872;2022-12-24T02:42:40;9.20;99.90
37530;DHT22;23374;52.758;6.872;2022-12-24T02:45:05;9.20;99.90
37530;DHT22;23374;52.758;6.872;2022-12-24T02:47:27;9.20;99.90
37530;DHT22;23374;52.758;6.872;2022-12-24T02:49:49;9.20;99.90
37530;DHT22;23374;52.758;6.872;2022-12-24T02:52:37;9.20;99.90
37530;DHT22;23374;52.758;6.872;2022-12-24T02:55:03;9.30;99.90
37530;DHT22;23374;52.758;6.872;2022-12-24T03:06:16;9.30;99.90
37530;DHT22;23374;52.758;6.872;2022-12-24T03:10:54;9.30;99.90
37530;DHT22;23374;52.758;6.872;2022-12-24T03:13:17;9.40;99.90
37530;DHT22;23374;52.758;6.872;2022-12-24T03:15:39;9.40;99.90
37530;DHT22;23374;52.758;6.872;2022-12-24T03:18:02;9.40;99.90
37530;DHT22;23374;52.758;6.872;2022-12-24T03:20:42;9.40;99.90
37530;DHT22;23374;52.758;6.872;2022-12-24T03:23:03;9.40;99.90
37530;DHT22;23374;52.758;6.872;2022-12-24T03:25:25;9.40;99.90
37530;DHT22;23374;52.758;6.872;2022-12-24T03:27:46;9.40;99.90
37530;DHT22;23374;52.758;6.872;2022-12-24T03:30:10;9.50;99.90
37530;DHT22;23374;52.758;6.872;2022-12-24T03:32:32;9.50;99.90
37530;DHT22;23374;52.758;6.872;2022-12-24T03:34:53;9.50;99.90
37530;DHT22;23374;52.758;6.872;2022-12-24T03:37:14;9.50;99.90
37530;DHT22;23374;52.758;6.872;2022-12-24T03:39:34;9.50;99.90
37530;DHT22;23374;52.758;6.872;2022-12-24T03:41:54;9.50;99.90
37530;DHT22;23374;52.758;6.872;2022-12-24T03:44:14;9.60;99.90
37530;DHT22;23374;52.758;6.872;2022-12-24T03:46:34;9.60;99.90
37530;DHT22;23374;52.758;6.872;2022-12-24T03:48:54;9.60;99.90
37530;DHT22;23374;52.758;6.872;2022-12-24T03:51:23;9.60;99.90
37530;DHT22;23374;52.758;6.872;2022-12-24T03:53:43;9.60;99.90
37530;DHT22;23374;52.758;6.872;2022-12-24T03:56:04;9.60;99.90
37530;DHT22;23374;52.758;6.872;2022-12-24T03:58:25;9.50;99.90
37530;DHT22;23374;52.758;6.872;2022-12-24T04:00:45;9.50;99.90
37530;DHT22;23374;52.758;6.872;2022-12-24T04:03:05;9.50;99.90
37530;DHT22;23374;52.758;6.872;2022-12-24T04:05:26;9.50;99.90
37530;DHT22;23374;52.758;6.872;2022-12-24T04:07:46;9.50;99.90
37530;DHT22;23374;52.758;6.872;2022-12-24T04:10:07;9.60;99.90
37530;DHT22;23374;52.758;6.872;2022-12-24T04:12:28;9.60;99.90
37530;DHT22;23374;52.758;6.872;2022-12-24T04:14:49;9.60;99.90
37530;DHT22;23374;52.758;6.872;2022-12-24T04:17:09;9.60;99.90
37530;DHT22;23374;52.758;6.872;2022-12-24T04:19:30;9.60;99.90
37530;DHT22;23374;52.758;6.872;2022-12-24T04:21:50;9.60;99.90
37530;DHT22;23374;52.758;6.872;2022-12-24T04:24:12;9.60;99.90
37530;DHT22;23374;52.758;6.872;2022-12-24T04:26:33;9.60;99.90
37530;DHT22;23374;52.758;6.872;2022-12-24T04:28:53;9.60;99.90
37530;DHT22;23374;52.758;6.872;2022-12-24T04:31:15;9.60;99.90
37530;DHT22;23374;52.758;6.872;2022-12-24T04:33:36;9.60;99.90
37530;DHT22;23374;52.758;6.872;2022-12-24T04:35:59;9.60;99.90
37530;DHT22;23374;52.758;6.872;2022-12-24T04:38:20;9.60;99.90
37530;DHT22;23374;52.758;6.872;2022-12-24T04:40:40;9.60;99.90
37530;DHT22;23374;52.758;6.872;2022-12-24T04:43:01;9.60;99.90
37530;DHT22;23374;52.758;6.872;2022-12-24T04:45:21;9.60;99.90
37530;DHT22;23374;52.758;6.872;2022-12-24T04:47:42;9.60;99.90
37530;DHT22;23374;52.758;6.872;2022-12-24T04:50:03;9.60;99.90
37530;DHT22;23374;52.758;6.872;2022-12-24T04:52:24;9.60;99.90
37530;DHT22;23374;52.758;6.872;2022-12-24T04:54:45;9.60;99.90
37530;DHT22;23374;52.758;6.872;2022-12-24T04:57:05;9.60;99.90
37530;DHT22;23374;52.758;6.872;2022-12-24T04:59:25;9.60;99.90
37530;DHT22;23374;52.758;6.872;2022-12-24T05:01:46;9.60;99.90
37530;DHT22;23374;52.758;6.872;2022-12-24T05:04:07;9.60;99.90
37530;DHT22;23374;52.758;6.872;2022-12-24T05:06:31;9.60;99.90
37530;DHT22;23374;52.758;6.872;2022-12-24T05:08:56;9.60;99.90
37530;DHT22;23374;52.758;6.872;2022-12-24T05:11:17;9.60;99.90
37530;DHT22;23374;52.758;6.872;2022-12-24T05:13:37;9.60;99.90
37530;DHT22;23374;52.758;6.872;2022-12-24T05:15:58;9.60;99.90
37530;DHT22;23374;52.758;6.872;2022-12-24T05:18:18;9.60;99.90
37530;DHT22;23374;52.758;6.872;2022-12-24T05:20:40;9.60;99.90
37530;DHT22;23374;52.758;6.872;2022-12-24T05:23:01;9.60;99.90
37530;DHT22;23374;52.758;6.872;2022-12-24T05:25:40;9.60;99.90
37530;DHT22;23374;52.758;6.872;2022-12-24T05:28:19;9.60;99.90
37530;DHT22;23374;52.758;6.872;2022-12-24T05:30:43;9.60;99.90
37530;DHT22;23374;52.758;6.872;2022-12-24T05:33:04;9.60;99.90
37530;DHT22;23374;52.758;6.872;2022-12-24T05:35:25;9.60;99.90
37530;DHT22;23374;52.758;6.872;2022-12-24T05:37:45;9.50;99.90
37530;DHT22;23374;52.758;6.872;2022-12-24T05:40:06;9.60;99.90
37530;DHT22;23374;52.758;6.872;2022-12-24T05:42:27;9.50;99.90
37530;DHT22;23374;52.758;6.872;2022-12-24T05:44:47;9.50;99.90
37530;DHT22;23374;52.758;6.872;2022-12-24T05:47:07;9.50;99.90
37530;DHT22;23374;52.758;6.872;2022-12-24T05:49:28;9.60;99.90
37530;DHT22;23374;52.758;6.872;2022-12-24T05:51:52;9.50;99.90
37530;DHT22;23374;52.758;6.872;2022-12-24T05:54:13;9.50;99.90
37530;DHT22;23374;52.758;6.872;2022-12-24T05:56:33;9.50;99.90
37530;DHT22;23374;52.758;6.872;2022-12-24T05:58:54;9.50;99.90
37530;DHT22;23374;52.758;6.872;2022-12-24T06:01:15;9.50;99.90
37530;DHT22;23374;52.758;6.872;2022-12-24T06:03:40;9.50;99.90
37530;DHT22;23374;52.758;6.872;2022-12-24T06:06:10;9.50;99.90
37530;DHT22;23374;52.758;6.872;2022-12-24T06:08:34;9.50;99.90
37530;DHT22;23374;52.758;6.872;2022-12-24T06:11:01;9.50;99.90
37530;DHT22;23374;52.758;6.872;2022-12-24T06:13:22;9.50;99.90
37530;DHT22;23374;52.758;6.872;2022-12-24T06:15:42;9.50;99.90
37530;DHT22;23374;52.758;6.872;2022-12-24T06:18:03;9.50;99.90
37530;DHT22;23374;52.758;6.872;2022-12-24T06:20:23;9.50;99.90
37530;DHT22;23374;52.758;6.872;2022-12-24T06:22:44;9.40;99.90
37530;DHT22;23374;52.758;6.872;2022-12-24T06:25:04;9.50;99.90
37530;DHT22;23374;52.758;6.872;2022-12-24T06:27:25;9.40;99.90
37530;DHT22;23374;52.758;6.872;2022-12-24T06:29:45;9.40;99.90
37530;DHT22;23374;52.758;6.872;2022-12-24T06:32:06;9.40;99.90
37530;DHT22;23374;52.758;6.872;2022-12-24T06:34:26;9.40;99.90
37530;DHT22;23374;52.758;6.872;2022-12-24T06:36:47;9.40;99.90
37530;DHT22;23374;52.758;6.872;2022-12-24T06:39:07;9.40;99.90
37530;DHT22;23374;52.758;6.872;2022-12-24T06:41:27;9.40;99.90
37530;DHT22;23374;52.758;6.872;2022-12-24T06:43:50;9.40;99.90
37530;DHT22;23374;52.758;6.872;2022-12-24T06:46:11;9.40;99.90
37530;DHT22;23374;52.758;6.872;2022-12-24T06:48:32;9.40;99.90
37530;DHT22;23374;52.758;6.872;2022-12-24T06:50:52;9.40;99.90
37530;DHT22;23374;52.758;6.872;2022-12-24T06:53:12;9.40;99.90
37530;DHT22;23374;52.758;6.872;2022-12-24T06:55:33;9.40;99.90
37530;DHT22;23374;52.758;6.872;2022-12-24T06:57:53;9.40;99.90
37530;DHT22;23374;52.758;6.872;2022-12-24T07:00:15;9.30;99.90
37530;DHT22;23374;52.758;6.872;2022-12-24T07:02:42;9.30;99.90
37530;DHT22;23374;52.758;6.872;2022-12-24T07:05:03;9.30;99.90
37530;DHT22;23374;52.758;6.872;2022-12-24T07:07:24;9.20;99.90
37530;DHT22;23374;52.758;6.872;2022-12-24T07:09:44;9.20;99.90
37530;DHT22;23374;52.758;6.872;2022-12-24T07:12:05;9.20;99.90
37530;DHT22;23374;52.758;6.872;2022-12-24T07:14:25;9.20;99.90
37530;DHT22;23374;52.758;6.872;2022-12-24T07:16:45;9.20;99.90
37530;DHT22;23374;52.758;6.872;2022-12-24T07:19:06;9.20;99.90
37530;DHT22;23374;52.758;6.872;2022-12-24T07:21:26;9.10;99.90
37530;DHT22;23374;52.758;6.872;2022-12-24T07:23:46;9.10;99.90
37530;DHT22;23374;52.758;6.872;2022-12-24T07:26:07;9.10;99.90
37530;DHT22;23374;52.758;6.872;2022-12-24T07:28:28;9.00;99.90
37530;DHT22;23374;52.758;6.872;2022-12-24T07:30:48;9.00;99.90
37530;DHT22;23374;52.758;6.872;2022-12-24T07:33:09;9.00;99.90
37530;DHT22;23374;52.758;6.872;2022-12-24T07:35:29;8.90;99.90
37530;DHT22;23374;52.758;6.872;2022-12-24T07:37:50;8.90;99.90
37530;DHT22;23374;52.758;6.872;2022-12-24T07:40:10;8.90;99.90
37530;DHT22;23374;52.758;6.872;2022-12-24T07:42:31;8.90;99.90
37530;DHT22;23374;52.758;6.872;2022-12-24T07:44:51;8.90;99.90
37530;DHT22;23374;52.758;6.872;2022-12-24T07:47:11;8.90;99.90
37530;DHT22;23374;52.758;6.872;2022-12-24T07:49:32;8.90;99.90
37530;DHT22;23374;52.758;6.872;2022-12-24T07:51:53;8.90;99.90
37530;DHT22;23374;52.758;6.872;2022-12-24T07:54:14;8.90;99.90
37530;DHT22;23374;52.758;6.872;2022-12-24T07:56:35;8.90;99.90
37530;DHT22;23374;52.758;6.872;2022-12-24T07:58:55;8.90;99.90
37530;DHT22;23374;52.758;6.872;2022-12-24T08:01:16;8.90;99.90
37530;DHT22;23374;52.758;6.872;2022-12-24T08:03:36;8.90;99.90
37530;DHT22;23374;52.758;6.872;2022-12-24T08:05:56;8.90;99.90
37530;DHT22;23374;52.758;6.872;2022-12-24T08:08:18;9.00;99.90
37530;DHT22;23374;52.758;6.872;2022-12-24T08:10:40;9.00;99.90
37530;DHT22;23374;52.758;6.872;2022-12-24T08:13:01;9.00;99.90
37530;DHT22;23374;52.758;6.872;2022-12-24T08:15:21;9.00;99.90
37530;DHT22;23374;52.758;6.872;2022-12-24T08:17:41;9.00;99.90
37530;DHT22;23374;52.758;6.872;2022-12-24T08:20:03;9.00;99.90
37530;DHT22;23374;52.758;6.872;2022-12-24T08:22:23;9.00;99.90
37530;DHT22;23374;52.758;6.872;2022-12-24T08:24:44;9.10;99.90
37530;DHT22;23374;52.758;6.872;2022-12-24T08:27:04;9.10;99.90
37530;DHT22;23374;52.758;6.872;2022-12-24T08:29:25;9.10;99.90
37530;DHT22;23374;52.758;6.872;2022-12-24T08:31:47;9.20;99.90
37530;DHT22;23374;52.758;6.872;2022-12-24T08:34:07;9.20;99.90
37530;DHT22;23374;52.758;6.872;2022-12-24T08:36:28;9.20;99.90
37530;DHT22;23374;52.758;6.872;2022-12-24T08:38:48;9.20;99.90
37530;DHT22;23374;52.758;6.872;2022-12-24T08:41:09;9.30;99.90
37530;DHT22;23374;52.758;6.872;2022-12-24T08:43:29;9.30;99.90
37530;DHT22;23374;52.758;6.872;2022-12-24T08:45:49;9.30;99.90
37530;DHT22;23374;52.758;6.872;2022-12-24T08:48:10;9.40;99.90
37530;DHT22;23374;52.758;6.872;2022-12-24T08:50:31;9.40;99.90
37530;DHT22;23374;52.758;6.872;2022-12-24T08:52:52;9.40;99.90
37530;DHT22;23374;52.758;6.872;2022-12-24T08:55:12;9.40;99.90
37530;DHT22;23374;52.758;6.872;2022-12-24T08:57:35;9.40;99.90
37530;DHT22;23374;52.758;6.872;2022-12-24T08:59:56;9.40;99.90
37530;DHT22;23374;52.758;6.872;2022-12-24T09:02:17;9.50;99.90
37530;DHT22;23374;52.758;6.872;2022-12-24T09:04:40;9.50;99.90
37530;DHT22;23374;52.758;6.872;2022-12-24T09:07:00;9.60;99.90
37530;DHT22;23374;52.758;6.872;2022-12-24T09:09:20;9.60;99.90
37530;DHT22;23374;52.758;6.872;2022-12-24T09:11:40;9.60;99.90
37530;DHT22;23374;52.758;6.872;2022-12-24T09:14:01;9.60;99.90
37530;DHT22;23374;52.758;6.872;2022-12-24T09:16:21;9.60;99.90
37530;DHT22;23374;52.758;6.872;2022-12-24T09:18:42;9.60;99.90
37530;DHT22;23374;52.758;6.872;2022-12-24T09:21:12;9.60;99.90
37530;DHT22;23374;52.758;6.872;2022-12-24T09:23:37;9.60;99.90
37530;DHT22;23374;52.758;6.872;2022-12-24T09:25:59;9.70;99.90
37530;DHT22;23374;52.758;6.872;2022-12-24T09:28:21;9.70;99.90
37530;DHT22;23374;52.758;6.872;2022-12-24T09:30:41;9.70;99.90
37530;DHT22;23374;52.758;6.872;2022-12-24T09:33:02;9.70;99.90
37530;DHT22;23374;52.758;6.872;2022-12-24T09:35:22;9.70;99.90
37530;DHT22;23374;52.758;6.872;2022-12-24T09:37:42;9.80;99.90
37530;DHT22;23374;52.758;6.872;2022-12-24T09:40:03;9.80;99.90
37530;DHT22;23374;52.758;6.872;2022-12-24T09:43:21;9.80;99.90
37530;DHT22;23374;52.758;6.872;2022-12-24T09:46:02;9.80;99.90
37530;DHT22;23374;52.758;6.872;2022-12-24T09:48:28;9.80;99.90
37530;DHT22;23374;52.758;6.872;2022-12-24T09:50:58;9.80;99.90
37530;DHT22;23374;52.758;6.872;2022-12-24T09:55:33;9.80;99.90
37530;DHT22;23374;52.758;6.872;2022-12-24T09:57:56;9.90;99.90
37530;DHT22;23374;52.758;6.872;2022-12-24T10:00:28;9.90;99.90
37530;DHT22;23374;52.758;6.872;2022-12-24T10:02:49;9.90;99.90
37530;DHT22;23374;52.758;6.872;2022-12-24T10:05:17;10.00;99.90
37530;DHT22;23374;52.758;6.872;2022-12-24T10:07:58;10.00;99.90
37530;DHT22;23374;52.758;6.872;2022-12-24T10:10:49;10.00;99.90
37530;DHT22;23374;52.758;6.872;2022-12-24T10:20:04;10.00;99.90
37530;DHT22;23374;52.758;6.872;2022-12-24T10:27:53;9.90;99.90
37530;DHT22;23374;52.758;6.872;2022-12-24T10:30:17;9.90;99.90
37530;DHT22;23374;52.758;6.872;2022-12-24T10:32:39;9.90;99.90
37530;DHT22;23374;52.758;6.872;2022-12-24T10:38:32;9.90;99.90
37530;DHT22;23374;52.758;6.872;2022-12-24T10:40:55;9.90;99.90
37530;DHT22;23374;52.758;6.872;2022-12-24T10:43:24;9.90;99.90
37530;DHT22;23374;52.758;6.872;2022-12-24T10:46:01;9.90;99.90
37530;DHT22;23374;52.758;6.872;2022-12-24T10:48:29;9.90;99.90
37530;DHT22;23374;52.758;6.872;2022-12-24T10:50:59;9.90;99.90
37530;DHT22;23374;52.758;6.872;2022-12-24T10:53:42;10.00;99.90
37530;DHT22;23374;52.758;6.872;2022-12-24T10:56:10;10.00;99.90
37530;DHT22;23374;52.758;6.872;2022-12-24T10:58:31;10.00;99.90
37530;DHT22;23374;52.758;6.872;2022-12-24T11:00:52;10.00;99.90
37530;DHT22;23374;52.758;6.872;2022-12-24T11:03:32;10.00;99.90
37530;DHT22;23374;52.758;6.872;2022-12-24T11:06:15;10.10;99.90
37530;DHT22;23374;52.758;6.872;2022-12-24T11:08:44;10.10;99.90
37530;DHT22;23374;52.758;6.872;2022-12-24T11:11:08;10.10;99.90
37530;DHT22;23374;52.758;6.872;2022-12-24T11:13:35;10.10;99.90
37530;DHT22;23374;52.758;6.872;2022-12-24T11:16:57;10.10;99.90
37530;DHT22;23374;52.758;6.872;2022-12-24T11:22:22;10.20;99.90
37530;DHT22;23374;52.758;6.872;2022-12-24T11:24:43;10.20;99.90
37530;DHT22;23374;52.758;6.872;2022-12-24T11:27:41;10.20;99.90
37530;DHT22;23374;52.758;6.872;2022-12-24T11:30:30;10.20;99.90
37530;DHT22;23374;52.758;6.872;2022-12-24T11:33:51;10.20;99.90
37530;DHT22;23374;52.758;6.872;2022-12-24T11:36:12;10.20;99.90
37530;DHT22;23374;52.758;6.872;2022-12-24T11:38:34;10.20;99.90
37530;DHT22;23374;52.758;6.872;2022-12-24T11:41:07;10.20;99.90
37530;DHT22;23374;52.758;6.872;2022-12-24T11:43:40;10.30;99.90
37530;DHT22;23374;52.758;6.872;2022-12-24T11:46:20;10.30;99.90
37530;DHT22;23374;52.758;6.872;2022-12-24T11:48:41;10.30;99.90
37530;DHT22;23374;52.758;6.872;2022-12-24T11:51:04;10.30;99.90
37530;DHT22;23374;52.758;6.872;2022-12-24T11:53:40;10.30;99.90
37530;DHT22;23374;52.758;6.872;2022-12-24T11:56:14;10.30;99.90
37530;DHT22;23374;52.758;6.872;2022-12-24T11:58:48;10.30;99.90
37530;DHT22;23374;52.758;6.872;2022-12-24T12:01:24;10.40;99.90
37530;DHT22;23374;52.758;6.872;2022-12-24T12:04:35;10.40;99.90
37530;DHT22;23374;52.758;6.872;2022-12-24T12:13:45;10.40;99.90
37530;DHT22;23374;52.758;6.872;2022-12-24T12:16:42;10.40;99.90
37530;DHT22;23374;52.758;6.872;2022-12-24T12:19:24;10.40;99.90
37530;DHT22;23374;52.758;6.872;2022-12-24T12:21:46;10.40;99.90
37530;DHT22;23374;52.758;6.872;2022-12-24T12:24:18;10.40;99.90
37530;DHT22;23374;52.758;6.872;2022-12-24T12:26:40;10.40;99.90
37530;DHT22;23374;52.758;6.872;2022-12-24T12:29:58;10.50;99.90
37530;DHT22;23374;52.758;6.872;2022-12-24T12:32:30;10.50;99.90
37530;DHT22;23374;52.758;6.872;2022-12-24T12:35:15;10.40;99.90
37530;DHT22;23374;52.758;6.872;2022-12-24T12:37:42;10.50;99.90
37530;DHT22;23374;52.758;6.872;2022-12-24T12:40:15;10.50;99.90
37530;DHT22;23374;52.758;6.872;2022-12-24T12:42:38;10.50;99.90
37530;DHT22;23374;52.758;6.872;2022-12-24T12:48:29;10.50;99.90
37530;DHT22;23374;52.758;6.872;2022-12-24T12:57:00;10.50;99.90
37530;DHT22;23374;52.758;6.872;2022-12-24T13:00:09;10.50;99.90
37530;DHT22;23374;52.758;6.872;2022-12-24T13:03:14;10.60;99.90
37530;DHT22;23374;52.758;6.872;2022-12-24T13:07:39;10.50;99.90
37530;DHT22;23374;52.758;6.872;2022-12-24T13:10:45;10.50;99.90
37530;DHT22;23374;52.758;6.872;2022-12-24T13:21:21;10.50;99.90
37530;DHT22;23374;52.758;6.872;2022-12-24T13:23:42;10.50;99.90
37530;DHT22;23374;52.758;6.872;2022-12-24T13:26:10;10.50;99.90
37530;DHT22;23374;52.758;6.872;2022-12-24T13:28:34;10.50;99.90
37530;DHT22;23374;52.758;6.872;2022-12-24T13:35:30;10.50;99.90
37530;DHT22;23374;52.758;6.872;2022-12-24T13:37:51;10.50;99.90
37530;DHT22;23374;52.758;6.872;2022-12-24T13:40:26;10.50;99.90
37530;DHT22;23374;52.758;6.872;2022-12-24T13:45:45;10.40;99.90
37530;DHT22;23374;52.758;6.872;2022-12-24T13:48:50;10.40;99.90
37530;DHT22;23374;52.758;6.872;2022-12-24T13:51:24;10.30;99.90
37530;DHT22;23374;52.758;6.872;2022-12-24T13:53:48;10.30;99.90
37530;DHT22;23374;52.758;6.872;2022-12-24T13:56:24;10.30;99.90
37530;DHT22;23374;52.758;6.872;2022-12-24T13:58:54;10.30;99.90
37530;DHT22;23374;52.758;6.872;2022-12-24T14:01:32;10.20;99.90
37530;DHT22;23374;52.758;6.872;2022-12-24T14:03:58;10.20;99.90
37530;DHT22;23374;52.758;6.872;2022-12-24T14:06:32;10.20;99.90
37530;DHT22;23374;52.758;6.872;2022-12-24T14:09:03;10.10;99.90
37530;DHT22;23374;52.758;6.872;2022-12-24T14:11:26;10.10;99.90
37530;DHT22;23374;52.758;6.872;2022-12-24T14:13:53;10.10;99.90
37530;DHT22;23374;52.758;6.872;2022-12-24T14:16:28;10.10;99.90
37530;DHT22;23374;52.758;6.872;2022-12-24T14:20:23;10.00;85.00
37530;DHT22;23374;52.758;6.872;2022-12-24T14:22:46;10.00;54.40
37530;DHT22;23374;52.758;6.872;2022-12-24T14:25:16;10.00;91.60
37530;DHT22;23374;52.758;6.872;2022-12-24T14:27:45;10.00;95.80
37530;DHT22;23374;52.758;6.872;2022-12-24T14:30:27;10.00;95.90
37530;DHT22;23374;52.758;6.872;2022-12-24T14:32:49;10.00;55.40
37530;DHT22;23374;52.758;6.872;2022-12-24T14:35:24;10.00;48.40
37530;DHT22;23374;52.758;6.872;2022-12-24T14:37:59;10.00;58.80
37530;DHT22;23374;52.758;6.872;2022-12-24T14:40:25;10.00;19.00
37530;DHT22;23374;52.758;6.872;2022-12-24T14:54:12;10.00;27.90
37530;DHT22;23374;52.758;6.872;2022-12-24T14:56:38;10.00;17.30
37530;DHT22;23374;52.758;6.872;2022-12-24T14:58:59;10.00;49.50
37530;DHT22;23374;52.758;6.872;2022-12-24T15:01:29;10.00;64.50
37530;DHT22;23374;52.758;6.872;2022-12-24T15:04:17;10.00;88.40
37530;DHT22;23374;52.758;6.872;2022-12-24T15:06:51;10.00;62.50
37530;DHT22;23374;52.758;6.872;2022-12-24T15:09:30;10.00;77.70
37530;DHT22;23374;52.758;6.872;2022-12-24T15:11:56;10.00;98.00
37530;DHT22;23374;52.758;6.872;2022-12-24T15:14:18;10.00;99.90
37530;DHT22;23374;52.758;6.872;2022-12-24T15:16:40;10.00;97.00
37530;DHT22;23374;52.758;6.872;2022-12-24T15:19:23;10.00;98.50
37530;DHT22;23374;52.758;6.872;2022-12-24T15:21:45;9.90;99.90
37530;DHT22;23374;52.758;6.872;2022-12-24T15:24:27;9.90;99.90
37530;DHT22;23374;52.758;6.872;2022-12-24T15:26:48;9.90;99.90
37530;DHT22;23374;52.758;6.872;2022-12-24T15:29:23;9.80;99.90
37530;DHT22;23374;52.758;6.872;2022-12-24T15:31:43;9.80;99.90
37530;DHT22;23374;52.758;6.872;2022-12-24T15:34:04;9.80;99.90
37530;DHT22;23374;52.758;6.872;2022-12-24T15:36:43;9.80;99.90
37530;DHT22;23374;52.758;6.872;2022-12-24T15:39:13;9.80;99.90
37530;DHT22;23374;52.758;6.872;2022-12-24T15:41:40;9.80;99.90
37530;DHT22;23374;52.758;6.872;2022-12-24T15:44:35;9.80;99.90
37530;DHT22;23374;52.758;6.872;2022-12-24T15:46:59;9.80;99.90
37530;DHT22;23374;52.758;6.872;2022-12-24T15:49:20;9.80;99.90
37530;DHT22;23374;52.758;6.872;2022-12-24T15:51:40;9.70;99.90
37530;DHT22;23374;52.758;6.872;2022-12-24T15:54:17;9.70;99.90
37530;DHT22;23374;52.758;6.872;2022-12-24T15:56:41;9.60;99.90
37530;DHT22;23374;52.758;6.872;2022-12-24T16:00:23;9.50;99.90
37530;DHT22;23374;52.758;6.872;2022-12-24T16:02:46;9.40;99.90
37530;DHT22;23374;52.758;6.872;2022-12-24T16:07:00;9.30;99.90
37530;DHT22;23374;52.758;6.872;2022-12-24T16:10:25;9.30;99.90
37530;DHT22;23374;52.758;6.872;2022-12-24T16:12:45;9.20;99.90
37530;DHT22;23374;52.758;6.872;2022-12-24T16:15:13;9.10;99.90
37530;DHT22;23374;52.758;6.872;2022-12-24T16:17:34;9.10;99.90
37530;DHT22;23374;52.758;6.872;2022-12-24T16:20:02;9.00;99.90
37530;DHT22;23374;52.758;6.872;2022-12-24T16:22:23;9.00;99.90
37530;DHT22;23374;52.758;6.872;2022-12-24T16:24:54;8.90;99.90
37530;DHT22;23374;52.758;6.872;2022-12-24T16:27:14;8.90;99.90
37530;DHT22;23374;52.758;6.872;2022-12-24T16:29:35;8.80;99.90
37530;DHT22;23374;52.758;6.872;2022-12-24T16:31:57;8.80;99.90
37530;DHT22;23374;52.758;6.872;2022-12-24T16:34:22;8.80;99.90
37530;DHT22;23374;52.758;6.872;2022-12-24T16:36:45;8.80;99.90
37530;DHT22;23374;52.758;6.872;2022-12-24T16:39:05;8.80;99.90
37530;DHT22;23374;52.758;6.872;2022-12-24T16:41:44;8.70;99.90
37530;DHT22;23374;52.758;6.872;2022-12-24T16:44:23;8.70;99.90
37530;DHT22;23374;52.758;6.872;2022-12-24T16:46:44;8.70;99.90
37530;DHT22;23374;52.758;6.872;2022-12-24T16:49:04;8.60;99.90
37530;DHT22;23374;52.758;6.872;2022-12-24T16:51:25;8.60;99.90
37530;DHT22;23374;52.758;6.872;2022-12-24T16:53:45;8.60;99.90
37530;DHT22;23374;52.758;6.872;2022-12-24T16:56:06;8.50;99.90
37530;DHT22;23374;52.758;6.872;2022-12-24T16:58:26;8.50;99.90
37530;DHT22;23374;52.758;6.872;2022-12-24T17:00:48;8.50;99.90
37530;DHT22;23374;52.758;6.872;2022-12-24T17:03:09;8.40;99.90
37530;DHT22;23374;52.758;6.872;2022-12-24T17:05:29;8.40;99.90
37530;DHT22;23374;52.758;6.872;2022-12-24T17:07:50;8.40;99.90
37530;DHT22;23374;52.758;6.872;2022-12-24T17:10:12;8.30;99.90
37530;DHT22;23374;52.758;6.872;2022-12-24T17:12:33;8.30;99.90
37530;DHT22;23374;52.758;6.872;2022-12-24T17:14:53;8.30;99.90